Etusivu
METAR-TAF:

METAR-TAF

Lentoasemat :

Burlington, Iowa, Yhdysvallat

Leveyspiiri: 40-46-22N, Pituuspiiri: 091-07-31W, korkeus merenpinnasta: 212 m

Tämänhetkinen sää

Tämä raportti tehtiin 55 minuuttia sitten, kello 12.53 UTC
Tuuli 6 kn etelästä/lounaasta
Lämpötila -7°C
Kosteus 86%
Ilmanpaine 1028 hPa
Näkyvyys: 8.0 km
selkeää
utua

METAR: KBRL 151253Z AUTO 21006KT 5SM BR CLR M07/M09 A3037 RMK AO2 SLP295 T10671089

Aika: 07:48 (13:48 UTC)

Sääennuste

Tämä raportti tehtiin 49 minuuttia sitten, kello 12.59 UTC
Ennuste voimassa 15. päivästä klo 13 UTC - 16. päivään klo 12 UTC
Tuuli 5 kn lounaasta
Näkyvyys: 10 km
selkeää
Ajoittain
15. päivästä klo 13 UTC - 15. päivään klo 14 UTC
Näkyvyys: 8.0 km
utua
From 16. päivästä klo 0600 UTC
Tuuli 7 kn idästä/kaakosta
Näkyvyys: 9.7 km
Hajonneita pilviä 25000 ft:n korkeudessa
utua

TAF: KBRL 151259Z 1513/1612 23005KT P6SM SKC TEMPO 1513/1514 5SM BR FM160600 11007KT 6SM BR BKN250

Säähavainnot ja -ennusteet yli 4000 lentoasemalta (METAR- ja TAF-raportit).

Käytössä olevat sääasemat on merkitty karttaan keltaisilla ja punaisilla pisteillä.

Aseta hiiri pisteen päälle nähdäksesi sääaseman nimen.

Klikkaa sitten nähdäksesi säähavainnot ja -ennusteet.

Kartan vaihtaminen: klikkaa mustalla rastilla varustettuja vihreitä pisteitä, niin voit zoomata sisään; viivalla varustettua vihreää pistettä, niin voit zoomata ulos tai vihreitä nuolia, niin pääset viereisille kartoille.


METAR-TAF: